createdAt,value
2023-01-06T00:02:23.168Z,12.20
2023-01-06T00:04:50.529Z,12.20
2023-01-06T00:07:17.833Z,12.20
2023-01-06T00:09:45.279Z,12.20
2023-01-06T00:12:12.524Z,12.20
2023-01-06T00:14:43.106Z,12.20
2023-01-06T00:17:11.703Z,12.20
2023-01-06T00:19:41.350Z,12.20
2023-01-06T00:22:08.947Z,12.20
2023-01-06T00:24:36.237Z,12.20
2023-01-06T00:27:03.529Z,12.30
2023-01-06T00:29:33.049Z,12.30
2023-01-06T00:32:01.338Z,12.30
2023-01-06T00:34:31.696Z,12.20
2023-01-06T00:36:59.086Z,12.20
2023-01-06T00:39:26.334Z,12.30
2023-01-06T00:42:05.274Z,12.20
2023-01-06T00:44:35.496Z,12.30
2023-01-06T00:47:04.449Z,12.20
2023-01-06T00:49:32.072Z,12.20
2023-01-06T00:52:01.699Z,12.20
2023-01-06T00:54:31.591Z,12.20
2023-01-06T00:57:01.050Z,12.20
2023-01-06T00:59:30.531Z,12.20
2023-01-06T01:01:58.944Z,12.20
2023-01-06T01:04:29.363Z,12.10
2023-01-06T01:07:00.548Z,12.20
2023-01-06T01:09:32.478Z,12.30
2023-01-06T01:12:14.250Z,12.20
2023-01-06T01:14:47.218Z,12.10
2023-01-06T01:17:17.575Z,12.10
2023-01-06T01:19:45.283Z,12.10
2023-01-06T01:22:15.382Z,12.10
2023-01-06T01:24:42.789Z,12.10
2023-01-06T01:27:10.086Z,12.00
2023-01-06T01:29:37.388Z,12.10
2023-01-06T01:32:04.963Z,12.10
2023-01-06T01:34:35.387Z,12.00
2023-01-06T01:37:03.051Z,12.00
2023-01-06T01:39:33.707Z,12.00
2023-01-06T01:42:03.147Z,12.00
2023-01-06T01:45:12.248Z,12.00
2023-01-06T01:47:51.985Z,12.00
2023-01-06T01:50:32.850Z,12.00
2023-01-06T01:53:11.456Z,12.00
2023-01-06T01:55:41.826Z,12.00
2023-01-06T01:58:17.559Z,12.00
2023-01-06T02:00:47.052Z,12.00
2023-01-06T02:03:15.615Z,11.90
2023-01-06T02:05:49.149Z,12.00
2023-01-06T02:08:22.815Z,12.00
2023-01-06T02:10:52.575Z,12.00
2023-01-06T02:13:23.267Z,12.10
2023-01-06T02:16:00.140Z,12.00
2023-01-06T02:18:59.228Z,12.10
2023-01-06T02:21:44.980Z,12.10
2023-01-06T02:24:38.939Z,12.10
2023-01-06T02:27:30.107Z,12.10
2023-01-06T02:30:06.230Z,12.10
2023-01-06T02:32:46.034Z,12.10
2023-01-06T02:35:32.260Z,12.10
2023-01-06T02:38:08.294Z,12.10
2023-01-06T02:40:53.198Z,12.10
2023-01-06T02:43:44.655Z,12.10
2023-01-06T02:46:32.332Z,12.10
2023-01-06T02:49:15.097Z,12.10
2023-01-06T02:52:06.455Z,12.10
2023-01-06T02:54:58.970Z,12.10
2023-01-06T02:57:31.948Z,12.00
2023-01-06T03:00:23.500Z,12.00
2023-01-06T03:02:57.708Z,12.00
2023-01-06T03:05:27.018Z,12.00
2023-01-06T03:07:59.689Z,12.00
2023-01-06T03:10:30.621Z,12.00
2023-01-06T03:13:06.749Z,12.00
2023-01-06T03:15:36.897Z,12.00
2023-01-06T03:18:04.308Z,12.00
2023-01-06T03:20:33.943Z,12.00
2023-01-06T03:23:01.317Z,12.00
2023-01-06T03:25:32.983Z,11.90
2023-01-06T03:28:02.793Z,12.00
2023-01-06T03:30:41.016Z,12.00
2023-01-06T03:33:47.069Z,12.00
2023-01-06T03:36:31.372Z,12.00
2023-01-06T03:39:01.302Z,12.00
2023-01-06T03:42:07.311Z,12.00
2023-01-06T03:44:50.237Z,12.00
2023-01-06T03:47:24.711Z,11.90
2023-01-06T03:50:09.653Z,11.90
2023-01-06T03:52:45.040Z,12.00
2023-01-06T03:55:19.105Z,11.90
2023-01-06T03:57:53.002Z,11.90
2023-01-06T04:00:30.496Z,11.80
2023-01-06T04:03:01.481Z,11.80
2023-01-06T04:05:29.250Z,11.80
2023-01-06T04:07:57.208Z,11.70
2023-01-06T04:10:26.693Z,11.70
2023-01-06T04:12:54.033Z,11.70
2023-01-06T04:15:24.211Z,11.70
2023-01-06T04:17:55.167Z,11.80
2023-01-06T04:20:25.673Z,11.70
2023-01-06T04:22:57.599Z,11.70
2023-01-06T04:25:25.852Z,11.70
2023-01-06T04:27:54.255Z,11.70
2023-01-06T04:30:21.541Z,11.70
2023-01-06T04:32:48.781Z,11.70
2023-01-06T04:35:18.251Z,11.70
2023-01-06T04:37:45.563Z,11.70
2023-01-06T04:40:12.957Z,11.60
2023-01-06T04:42:58.602Z,11.70
2023-01-06T04:45:25.918Z,11.70
2023-01-06T04:47:55.656Z,11.60
2023-01-06T04:50:22.947Z,11.60
2023-01-06T04:52:50.198Z,11.60
2023-01-06T04:55:17.589Z,11.60
2023-01-06T04:57:46.987Z,11.60
2023-01-06T05:00:14.637Z,11.60
2023-01-06T05:02:41.920Z,11.40
2023-01-06T05:05:09.714Z,11.30
2023-01-06T05:07:37.028Z,11.30
2023-01-06T05:10:08.591Z,11.30
2023-01-06T05:12:36.420Z,11.40
2023-01-06T05:15:04.122Z,11.40
2023-01-06T05:17:31.796Z,11.40
2023-01-06T05:20:06.017Z,11.40
2023-01-06T05:22:33.316Z,11.40
2023-01-06T05:25:03.408Z,11.50
2023-01-06T05:27:30.637Z,11.50
2023-01-06T05:29:57.873Z,11.50
2023-01-06T05:32:25.124Z,11.50
2023-01-06T05:34:52.441Z,11.60
2023-01-06T05:37:19.789Z,11.50
2023-01-06T05:39:51.731Z,11.60
2023-01-06T05:42:21.622Z,11.60
2023-01-06T05:44:51.227Z,11.70
2023-01-06T05:47:23.214Z,11.60
2023-01-06T05:49:50.459Z,11.60
2023-01-06T05:52:17.717Z,11.70
2023-01-06T05:54:45.015Z,11.70
2023-01-06T05:57:12.381Z,11.70
2023-01-06T05:59:39.600Z,11.80
2023-01-06T06:02:06.940Z,11.80
2023-01-06T06:04:34.364Z,11.80
2023-01-06T06:07:01.617Z,11.80
2023-01-06T06:09:28.892Z,11.80
2023-01-06T06:11:58.681Z,11.80
2023-01-06T06:14:28.409Z,11.90
2023-01-06T06:16:58.187Z,11.90
2023-01-06T06:19:27.884Z,11.80
2023-01-06T06:21:55.138Z,11.90
2023-01-06T06:24:22.402Z,12.00
2023-01-06T06:26:49.656Z,12.00
2023-01-06T06:29:16.887Z,11.90
2023-01-06T06:31:46.325Z,11.90
2023-01-06T06:34:13.973Z,11.80
2023-01-06T06:36:41.268Z,11.90
2023-01-06T06:39:08.473Z,11.90
2023-01-06T06:41:38.023Z,11.80
2023-01-06T06:44:09.824Z,11.90
2023-01-06T06:46:39.253Z,11.90
2023-01-06T06:49:06.473Z,11.90
2023-01-06T06:51:33.727Z,11.90
2023-01-06T06:54:01.017Z,11.90
2023-01-06T06:56:30.411Z,11.90
2023-01-06T06:59:00.069Z,11.90
2023-01-06T07:01:28.082Z,11.90
2023-01-06T07:03:55.352Z,11.90
2023-01-06T07:06:27.823Z,11.90
2023-01-06T07:08:57.413Z,11.90
2023-01-06T07:11:27.198Z,12.00
2023-01-06T07:13:56.934Z,12.00
2023-01-06T07:16:26.689Z,12.00
2023-01-06T07:18:54.008Z,12.00
2023-01-06T07:21:21.246Z,12.10
2023-01-06T07:23:50.698Z,12.10
2023-01-06T07:26:20.414Z,12.10
2023-01-06T07:28:49.901Z,12.20
2023-01-06T07:31:19.587Z,12.10
2023-01-06T07:33:46.934Z,12.20
2023-01-06T07:36:14.224Z,12.20
2023-01-06T07:38:41.450Z,12.20
2023-01-06T07:41:08.744Z,12.20
2023-01-06T07:43:38.200Z,12.20
2023-01-06T07:46:05.617Z,12.10
2023-01-06T07:48:33.127Z,12.10
2023-01-06T07:51:00.410Z,12.20
2023-01-06T07:53:32.643Z,12.10
2023-01-06T07:56:02.280Z,12.10
2023-01-06T07:58:31.989Z,12.10
2023-01-06T08:01:05.506Z,12.00
2023-01-06T08:03:32.709Z,11.90
2023-01-06T08:06:07.038Z,11.80
2023-01-06T08:08:40.087Z,11.70
2023-01-06T08:11:10.199Z,11.70
2023-01-06T08:13:38.115Z,11.70
2023-01-06T08:16:09.821Z,11.80
2023-01-06T08:18:39.769Z,11.90
2023-01-06T08:21:09.294Z,11.90
2023-01-06T08:23:37.906Z,11.90
2023-01-06T08:26:11.275Z,11.90
2023-01-06T08:28:40.712Z,11.90
2023-01-06T08:31:15.603Z,11.90
2023-01-06T08:33:43.032Z,11.90
2023-01-06T08:36:13.630Z,11.90
2023-01-06T08:38:40.963Z,12.00
2023-01-06T08:41:08.727Z,12.00
2023-01-06T08:43:39.386Z,12.10
2023-01-06T08:46:11.747Z,12.10
2023-01-06T08:48:39.515Z,12.10
2023-01-06T08:51:10.743Z,12.10
2023-01-06T08:53:38.097Z,12.10
2023-01-06T08:56:11.201Z,12.20
2023-01-06T08:58:43.183Z,12.30
2023-01-06T09:01:20.584Z,12.30
2023-01-06T09:03:49.989Z,12.30
2023-01-06T09:06:18.362Z,12.20
2023-01-06T09:08:45.978Z,12.30
2023-01-06T09:11:13.416Z,12.30
2023-01-06T09:13:44.398Z,12.40
2023-01-06T09:16:14.413Z,12.30
2023-01-06T09:18:47.475Z,12.30
2023-01-06T09:21:18.175Z,12.30
2023-01-06T09:23:46.010Z,12.40
2023-01-06T09:26:14.482Z,12.70
2023-01-06T09:28:41.988Z,13.70
2023-01-06T09:31:12.223Z,13.90
2023-01-06T09:33:40.059Z,13.70
2023-01-06T09:36:07.867Z,13.60
2023-01-06T09:38:35.224Z,13.50
2023-01-06T09:41:38.439Z,13.50
2023-01-06T09:44:24.629Z,13.50
2023-01-06T09:46:54.914Z,13.20
2023-01-06T09:49:41.645Z,13.10
2023-01-06T09:52:29.620Z,13.10
2023-01-06T09:55:02.179Z,13.10
2023-01-06T09:57:35.320Z,13.00
2023-01-06T10:00:07.798Z,12.90
2023-01-06T10:02:41.349Z,12.90
2023-01-06T10:05:37.062Z,12.70
2023-01-06T10:08:35.279Z,12.70
2023-01-06T10:11:11.783Z,12.60
2023-01-06T10:14:02.289Z,12.50
2023-01-06T10:16:43.712Z,12.40
2023-01-06T10:19:26.946Z,12.20
2023-01-06T10:22:11.217Z,12.10
2023-01-06T10:24:55.293Z,12.00
2023-01-06T10:27:28.457Z,12.10
2023-01-06T10:30:03.117Z,12.20
2023-01-06T10:32:35.102Z,12.30
2023-01-06T10:35:03.127Z,12.20
2023-01-06T10:37:41.713Z,12.30
2023-01-06T10:40:25.499Z,12.30
2023-01-06T10:43:06.762Z,12.20
2023-01-06T10:45:45.171Z,12.10
2023-01-06T10:48:18.801Z,12.20
2023-01-06T10:50:46.715Z,12.20
2023-01-06T10:53:15.348Z,12.30
2023-01-06T10:55:57.437Z,12.20
2023-01-06T10:58:30.839Z,12.10
2023-01-06T11:01:01.064Z,12.20
2023-01-06T11:03:34.134Z,12.20
2023-01-06T11:06:07.460Z,12.20
2023-01-06T11:08:37.826Z,12.10
2023-01-06T11:11:26.901Z,12.20
2023-01-06T11:13:58.889Z,12.10
2023-01-06T11:16:36.515Z,12.10
2023-01-06T11:19:09.581Z,12.20
2023-01-06T11:21:44.779Z,12.30
2023-01-06T11:24:24.699Z,12.50
2023-01-06T11:27:13.962Z,12.50
2023-01-06T11:29:41.275Z,12.40
2023-01-06T11:32:24.811Z,12.40
2023-01-06T11:35:05.677Z,12.40
2023-01-06T11:37:37.738Z,12.40
2023-01-06T11:40:27.532Z,12.30
2023-01-06T11:43:06.591Z,12.30
2023-01-06T11:45:41.776Z,12.40
2023-01-06T11:48:20.711Z,12.50
2023-01-06T11:51:02.773Z,12.70
2023-01-06T11:53:30.762Z,12.90
2023-01-06T11:56:07.110Z,13.40
2023-01-06T11:58:52.589Z,13.70
2023-01-06T12:01:31.259Z,13.70
2023-01-06T12:04:24.278Z,13.70
2023-01-06T12:07:00.025Z,13.50
2023-01-06T12:09:34.122Z,13.50
2023-01-06T12:12:12.100Z,13.40
2023-01-06T12:14:40.161Z,13.40
2023-01-06T12:17:16.791Z,13.40
2023-01-06T12:20:01.457Z,13.20
2023-01-06T12:22:57.297Z,13.10
2023-01-06T12:25:30.287Z,13.10
2023-01-06T12:28:05.030Z,13.20
2023-01-06T12:31:08.499Z,13.20
2023-01-06T12:33:53.569Z,13.00
2023-01-06T12:36:47.242Z,12.90
2023-01-06T12:39:26.987Z,12.70
2023-01-06T12:42:03.235Z,12.70
2023-01-06T12:44:40.389Z,12.60
2023-01-06T12:47:10.617Z,12.60
2023-01-06T12:49:49.125Z,12.60
2023-01-06T12:52:46.491Z,12.60
2023-01-06T12:55:18.749Z,12.70
2023-01-06T12:57:54.093Z,12.70
2023-01-06T13:01:02.753Z,12.70
2023-01-06T13:03:39.126Z,12.80
2023-01-06T13:06:25.084Z,12.90
2023-01-06T13:09:03.624Z,13.10
2023-01-06T13:11:59.380Z,13.20
2023-01-06T13:14:38.520Z,13.20
2023-01-06T13:17:14.249Z,13.20
2023-01-06T13:19:51.565Z,13.30
2023-01-06T13:22:37.547Z,13.50
2023-01-06T13:25:33.752Z,13.40
2023-01-06T13:28:15.985Z,13.40
2023-01-06T13:31:15.570Z,13.40
2023-01-06T13:34:13.514Z,13.30
2023-01-06T13:36:50.853Z,13.10
2023-01-06T13:39:27.355Z,13.10
2023-01-06T13:42:00.510Z,12.90
2023-01-06T13:44:31.713Z,13.00
2023-01-06T13:47:15.166Z,13.20
2023-01-06T13:49:43.148Z,13.40
2023-01-06T13:52:21.937Z,13.50
2023-01-06T13:54:52.196Z,13.80
2023-01-06T13:57:22.420Z,13.90
2023-01-06T13:59:53.651Z,13.70
2023-01-06T14:02:38.748Z,13.80
2023-01-06T14:05:07.048Z,13.90
2023-01-06T14:07:40.004Z,14.00
2023-01-06T14:10:27.521Z,14.10
2023-01-06T14:12:55.492Z,14.10
2023-01-06T14:15:36.642Z,14.00
2023-01-06T14:18:04.345Z,14.10
2023-01-06T14:20:40.180Z,14.00
2023-01-06T14:23:19.367Z,13.80
2023-01-06T14:25:50.929Z,13.60
2023-01-06T14:28:21.032Z,13.50
2023-01-06T14:30:52.218Z,13.50
2023-01-06T14:33:25.394Z,13.40
2023-01-06T14:36:10.608Z,13.40
2023-01-06T14:38:49.612Z,13.40
2023-01-06T14:41:26.881Z,13.40
2023-01-06T14:43:55.537Z,13.40
2023-01-06T14:46:30.991Z,13.20
2023-01-06T14:49:05.280Z,13.20
2023-01-06T14:51:35.311Z,13.20
2023-01-06T14:54:12.768Z,13.00
2023-01-06T14:56:40.230Z,12.90
2023-01-06T14:59:16.805Z,13.00
2023-01-06T15:01:54.032Z,12.80
2023-01-06T15:04:27.414Z,12.70
2023-01-06T15:07:20.164Z,12.80
2023-01-06T15:09:49.454Z,12.90
2023-01-06T15:12:46.646Z,12.80
2023-01-06T15:15:31.943Z,12.70
2023-01-06T15:18:01.524Z,12.70
2023-01-06T15:20:40.331Z,12.70
2023-01-06T15:23:12.643Z,12.70
2023-01-06T15:25:42.464Z,12.70
2023-01-06T15:28:29.811Z,12.70
2023-01-06T15:30:58.216Z,12.70
2023-01-06T15:33:33.192Z,12.50
2023-01-06T15:36:02.858Z,12.30
2023-01-06T15:38:38.238Z,12.20
2023-01-06T15:41:26.561Z,12.10
2023-01-06T15:43:56.282Z,12.10
2023-01-06T15:46:24.480Z,12.10
2023-01-06T15:48:52.684Z,12.10
2023-01-06T15:51:22.678Z,12.10
2023-01-06T15:53:58.670Z,12.20
2023-01-06T15:56:32.009Z,12.30
2023-01-06T15:59:00.025Z,12.20
2023-01-06T16:01:29.822Z,12.20
2023-01-06T16:04:02.040Z,12.10
2023-01-06T16:06:34.349Z,12.10
2023-01-06T16:09:35.723Z,12.10
2023-01-06T16:12:18.944Z,12.20
2023-01-06T16:14:49.337Z,12.20
2023-01-06T16:17:35.623Z,12.30
2023-01-06T16:20:08.607Z,12.20
2023-01-06T16:22:51.956Z,12.20
2023-01-06T16:25:33.623Z,12.10
2023-01-06T16:28:04.409Z,12.10
2023-01-06T16:30:36.525Z,12.10
2023-01-06T16:33:24.547Z,12.10
2023-01-06T16:35:52.456Z,12.10
2023-01-06T16:38:21.998Z,12.10
2023-01-06T16:40:54.414Z,12.20
2023-01-06T16:43:21.614Z,12.20
2023-01-06T16:45:54.043Z,12.20
2023-01-06T16:48:21.539Z,12.20
2023-01-06T16:50:54.820Z,12.30
2023-01-06T16:53:33.709Z,12.30
2023-01-06T16:56:04.811Z,12.30
2023-01-06T16:58:35.117Z,12.30
2023-01-06T17:01:13.242Z,12.30
2023-01-06T17:03:41.472Z,12.30
2023-01-06T17:06:17.203Z,12.30
2023-01-06T17:08:45.579Z,12.30
2023-01-06T17:11:24.610Z,12.20
2023-01-06T17:13:57.177Z,12.20
2023-01-06T17:16:29.581Z,12.20
2023-01-06T17:19:05.227Z,12.20
2023-01-06T17:21:38.749Z,12.10
2023-01-06T17:24:14.618Z,12.00
2023-01-06T17:26:55.717Z,12.00
2023-01-06T17:29:23.934Z,12.00
2023-01-06T17:31:55.624Z,12.00
2023-01-06T17:34:31.485Z,12.00
2023-01-06T17:37:06.444Z,11.90
2023-01-06T17:39:43.267Z,11.90
2023-01-06T17:42:13.467Z,12.00
2023-01-06T17:44:42.447Z,12.00
2023-01-06T17:47:24.031Z,12.00
2023-01-06T17:49:58.047Z,11.90
2023-01-06T17:53:05.605Z,12.00
2023-01-06T17:55:43.327Z,12.00
2023-01-06T17:58:28.770Z,12.00
2023-01-06T18:00:59.013Z,12.00
2023-01-06T18:03:39.912Z,12.10
2023-01-06T18:06:11.627Z,12.10
2023-01-06T18:08:39.000Z,12.10
2023-01-06T18:11:27.919Z,12.10
2023-01-06T18:13:58.360Z,12.10
2023-01-06T18:16:35.971Z,12.10
2023-01-06T18:19:22.646Z,12.20
2023-01-06T18:21:50.197Z,12.20
2023-01-06T18:24:31.564Z,12.20
2023-01-06T18:27:04.012Z,12.10
2023-01-06T18:29:37.863Z,12.20
2023-01-06T18:32:28.588Z,12.20
2023-01-06T18:35:07.274Z,12.20
2023-01-06T18:37:40.347Z,12.20
2023-01-06T18:40:13.557Z,12.20
2023-01-06T18:42:46.442Z,12.20
2023-01-06T18:45:24.414Z,12.10
2023-01-06T18:48:32.913Z,12.20
2023-01-06T18:51:04.345Z,12.10
2023-01-06T18:53:47.294Z,12.10
2023-01-06T18:56:26.953Z,12.10
2023-01-06T18:58:57.393Z,12.00
2023-01-06T19:01:52.549Z,12.10
2023-01-06T19:04:29.428Z,12.00
2023-01-06T19:07:20.182Z,12.10
2023-01-06T19:09:49.304Z,12.10
2023-01-06T19:12:36.149Z,12.10
2023-01-06T19:15:32.085Z,12.10
2023-01-06T19:18:01.075Z,12.20
2023-01-06T19:20:35.100Z,12.20
2023-01-06T19:23:15.785Z,12.30
2023-01-06T19:25:48.417Z,12.30
2023-01-06T19:28:19.427Z,12.20
2023-01-06T19:30:51.295Z,12.10
2023-01-06T19:33:32.386Z,12.00
2023-01-06T19:36:07.126Z,12.00
2023-01-06T19:38:38.520Z,11.90
2023-01-06T19:41:15.461Z,11.80
2023-01-06T19:43:43.232Z,11.90
2023-01-06T19:46:22.442Z,11.80
2023-01-06T19:48:53.748Z,11.80
2023-01-06T19:51:21.044Z,11.80
2023-01-06T19:53:58.146Z,11.80
2023-01-06T19:56:30.481Z,11.90
2023-01-06T19:59:02.954Z,11.80
2023-01-06T20:01:32.990Z,11.70
2023-01-06T20:04:00.965Z,11.70
2023-01-06T20:06:30.738Z,11.70
2023-01-06T20:08:57.986Z,11.70
2023-01-06T20:11:25.322Z,11.80
2023-01-06T20:13:54.748Z,11.70
2023-01-06T20:16:22.097Z,11.70
2023-01-06T20:18:50.598Z,11.70
2023-01-06T20:21:18.006Z,11.70
2023-01-06T20:23:48.916Z,11.70
2023-01-06T20:26:16.284Z,11.70
2023-01-06T20:28:46.229Z,11.70
2023-01-06T20:31:13.521Z,11.70
2023-01-06T20:33:40.776Z,11.70
2023-01-06T20:36:08.352Z,11.70
2023-01-06T20:38:35.695Z,11.80
2023-01-06T20:41:03.001Z,11.70
2023-01-06T20:43:32.643Z,11.80
2023-01-06T20:46:00.023Z,11.80
2023-01-06T20:48:27.492Z,11.70
2023-01-06T20:50:54.864Z,11.70
2023-01-06T20:53:22.224Z,11.70
2023-01-06T20:55:49.557Z,11.70
2023-01-06T20:58:16.851Z,11.70
2023-01-06T21:00:46.634Z,11.70
2023-01-06T21:03:13.951Z,11.60
2023-01-06T21:05:41.292Z,11.60
2023-01-06T21:08:10.709Z,11.60
2023-01-06T21:10:39.093Z,11.60
2023-01-06T21:13:06.649Z,11.60
2023-01-06T21:15:33.946Z,11.50
2023-01-06T21:18:01.347Z,11.60
2023-01-06T21:20:28.618Z,11.70
2023-01-06T21:22:58.235Z,11.60
2023-01-06T21:25:27.789Z,11.60
2023-01-06T21:27:55.299Z,11.60
2023-01-06T21:30:24.884Z,11.60
2023-01-06T21:32:52.377Z,11.60
2023-01-06T21:35:19.602Z,11.60
2023-01-06T21:37:46.886Z,11.60
2023-01-06T21:40:15.053Z,11.70
2023-01-06T21:43:00.992Z,11.70
2023-01-06T21:45:28.321Z,11.70
2023-01-06T21:47:57.790Z,11.70
2023-01-06T21:50:26.908Z,11.70
2023-01-06T21:52:54.782Z,11.70
2023-01-06T21:55:22.663Z,11.60
2023-01-06T21:57:52.681Z,11.60
2023-01-06T22:00:20.085Z,11.70
2023-01-06T22:02:47.465Z,11.60
2023-01-06T22:05:17.705Z,11.60
2023-01-06T22:07:49.266Z,11.60
2023-01-06T22:10:23.073Z,11.70
2023-01-06T22:12:54.216Z,11.80
2023-01-06T22:15:23.900Z,11.80
2023-01-06T22:17:55.066Z,11.80
2023-01-06T22:20:22.484Z,11.80
2023-01-06T22:22:49.845Z,11.80
2023-01-06T22:25:17.330Z,11.70
2023-01-06T22:27:44.674Z,11.70
2023-01-06T22:30:14.829Z,11.60
2023-01-06T22:32:47.019Z,11.60
2023-01-06T22:35:15.593Z,11.50
2023-01-06T22:37:45.353Z,11.50
2023-01-06T22:40:14.689Z,11.50
2023-01-06T22:42:42.820Z,11.50
2023-01-06T22:45:11.472Z,11.50
2023-01-06T22:47:42.193Z,11.50
2023-01-06T22:50:10.213Z,11.50
2023-01-06T22:52:38.185Z,11.40
2023-01-06T22:55:08.387Z,11.50
2023-01-06T22:57:35.661Z,11.40
2023-01-06T23:00:12.158Z,11.40
2023-01-06T23:02:39.656Z,11.50
2023-01-06T23:05:07.705Z,11.40
2023-01-06T23:07:40.091Z,11.50
2023-01-06T23:10:12.645Z,11.50
2023-01-06T23:12:41.581Z,11.40
2023-01-06T23:15:10.100Z,11.40
2023-01-06T23:17:38.018Z,11.40
2023-01-06T23:20:05.884Z,11.40
2023-01-06T23:22:33.192Z,11.40
2023-01-06T23:25:03.004Z,11.30
2023-01-06T23:27:31.433Z,11.30
2023-01-06T23:29:59.424Z,11.20
2023-01-06T23:32:26.694Z,11.30
2023-01-06T23:34:58.714Z,11.30
2023-01-06T23:37:26.662Z,11.30
2023-01-06T23:39:58.862Z,11.30
2023-01-06T23:42:30.486Z,11.30
2023-01-06T23:45:02.055Z,11.30
2023-01-06T23:47:29.290Z,11.20
2023-01-06T23:50:00.857Z,11.20
2023-01-06T23:52:28.128Z,11.20
2023-01-06T23:54:55.354Z,11.30
2023-01-06T23:57:22.592Z,11.20
2023-01-06T23:59:52.022Z,11.30
